createdAt,value
2019-01-29T00:02:04.491Z,2.44
2019-01-29T00:04:33.877Z,2.52
2019-01-29T00:07:03.532Z,2.49
2019-01-29T00:09:33.945Z,2.49
2019-01-29T00:12:05.103Z,2.54
2019-01-29T00:14:35.704Z,2.49
2019-01-29T00:17:06.275Z,2.46
2019-01-29T00:19:36.784Z,2.43
2019-01-29T00:22:07.868Z,2.38
2019-01-29T00:24:37.288Z,2.35
2019-01-29T00:27:06.669Z,2.36
2019-01-29T00:29:36.316Z,2.31
2019-01-29T00:32:06.072Z,2.35
2019-01-29T00:34:38.624Z,2.42
2019-01-29T00:37:08.294Z,2.49
2019-01-29T00:39:38.769Z,2.46
2019-01-29T00:42:09.651Z,2.50
2019-01-29T00:44:41.009Z,2.54
2019-01-29T00:47:11.128Z,2.58
2019-01-29T00:49:41.962Z,2.56
2019-01-29T00:52:11.568Z,2.57
2019-01-29T00:54:42.163Z,2.57
2019-01-29T00:57:13.470Z,2.49
2019-01-29T00:59:42.955Z,2.52
2019-01-29T01:02:12.435Z,2.53
2019-01-29T01:04:42.207Z,2.57
2019-01-29T01:07:12.936Z,2.60
2019-01-29T01:09:43.363Z,2.60
2019-01-29T01:12:14.573Z,2.64
2019-01-29T01:14:45.449Z,2.69
2019-01-29T01:17:14.950Z,2.76
2019-01-29T01:19:44.392Z,2.82
2019-01-29T01:22:14.125Z,2.77
2019-01-29T01:24:44.702Z,2.72
2019-01-29T01:27:14.137Z,2.76
2019-01-29T01:29:43.745Z,2.75
2019-01-29T01:32:13.131Z,2.80
2019-01-29T01:34:42.551Z,2.79
2019-01-29T01:37:13.821Z,2.63
2019-01-29T01:39:45.023Z,2.57
2019-01-29T01:42:14.425Z,2.53
2019-01-29T01:44:43.909Z,2.49
2019-01-29T01:47:13.411Z,2.51
2019-01-29T01:49:44.016Z,2.55
2019-01-29T01:52:13.700Z,2.49
2019-01-29T01:54:43.100Z,2.57
2019-01-29T01:57:14.313Z,2.55
2019-01-29T01:59:46.554Z,2.62
2019-01-29T02:02:16.002Z,2.62
2019-01-29T02:04:45.429Z,2.62
2019-01-29T02:07:14.872Z,2.55
2019-01-29T02:09:45.713Z,2.60
2019-01-29T02:12:16.315Z,2.63
2019-01-29T02:14:48.479Z,2.63
2019-01-29T02:17:18.105Z,2.63
2019-01-29T02:19:48.683Z,2.64
2019-01-29T02:22:18.369Z,2.66
2019-01-29T02:24:47.912Z,2.63
2019-01-29T02:27:19.009Z,2.59
2019-01-29T02:29:48.432Z,2.65
2019-01-29T02:32:18.827Z,2.66
2019-01-29T02:34:50.013Z,2.59
2019-01-29T02:37:20.885Z,2.63
2019-01-29T02:39:50.392Z,2.67
2019-01-29T02:42:19.932Z,2.66
2019-01-29T02:44:52.539Z,2.66
2019-01-29T02:47:21.925Z,2.64
2019-01-29T02:49:51.330Z,2.70
2019-01-29T02:52:21.164Z,2.71
2019-01-29T02:54:51.627Z,2.69
2019-01-29T02:57:21.048Z,2.69
2019-01-29T02:59:50.503Z,2.70
2019-01-29T03:02:19.952Z,2.72
2019-01-29T03:04:49.367Z,2.70
2019-01-29T03:07:18.929Z,2.72
2019-01-29T03:09:48.438Z,2.72
2019-01-29T03:12:18.341Z,2.80
2019-01-29T03:14:48.000Z,2.79
2019-01-29T03:17:17.409Z,2.88
2019-01-29T03:19:46.794Z,2.86
2019-01-29T03:22:17.478Z,2.98
2019-01-29T03:24:46.958Z,3.03
2019-01-29T03:27:17.727Z,3.22
2019-01-29T03:29:47.315Z,3.20
2019-01-29T03:32:16.794Z,3.07
2019-01-29T03:34:46.273Z,3.12
2019-01-29T03:37:15.829Z,3.04
2019-01-29T03:39:47.129Z,3.06
2019-01-29T03:42:16.546Z,3.23
2019-01-29T03:44:47.715Z,3.29
2019-01-29T03:47:18.603Z,3.38
2019-01-29T03:49:48.047Z,3.50
2019-01-29T03:52:19.595Z,3.52
2019-01-29T03:54:48.996Z,3.57
2019-01-29T03:57:18.400Z,3.47
2019-01-29T03:59:47.851Z,3.46
2019-01-29T04:02:17.276Z,3.48
2019-01-29T04:04:46.967Z,3.53
2019-01-29T04:07:16.571Z,3.48
2019-01-29T04:09:47.398Z,3.52
2019-01-29T04:12:18.642Z,3.54
2019-01-29T04:14:50.816Z,3.47
2019-01-29T04:17:22.278Z,3.45
2019-01-29T04:19:51.676Z,3.43
2019-01-29T04:22:23.167Z,3.40
2019-01-29T04:24:52.661Z,3.35
2019-01-29T04:27:23.519Z,3.35
2019-01-29T04:29:53.066Z,3.25
2019-01-29T04:32:22.750Z,3.31
2019-01-29T04:34:52.184Z,3.29
2019-01-29T04:37:21.735Z,3.33
2019-01-29T04:39:52.661Z,3.42
2019-01-29T04:42:23.290Z,3.48
2019-01-29T04:44:57.542Z,3.48
2019-01-29T04:47:28.749Z,3.57
2019-01-29T04:49:59.257Z,3.60
2019-01-29T04:52:28.992Z,3.61
2019-01-29T04:55:00.992Z,3.69
2019-01-29T04:57:31.420Z,3.72
2019-01-29T05:00:01.101Z,3.67
2019-01-29T05:02:30.798Z,3.61
2019-01-29T05:05:00.200Z,3.61
2019-01-29T05:07:29.814Z,3.65
2019-01-29T05:10:01.470Z,3.57
2019-01-29T05:12:30.868Z,3.57
2019-01-29T05:15:03.071Z,3.71
2019-01-29T05:17:32.480Z,3.72
2019-01-29T05:20:02.194Z,3.71
2019-01-29T05:22:34.450Z,3.73
2019-01-29T05:25:06.980Z,3.71
2019-01-29T05:27:36.514Z,3.59
2019-01-29T05:30:08.618Z,3.69
2019-01-29T05:32:38.001Z,3.63
2019-01-29T05:35:07.975Z,3.70
2019-01-29T05:37:37.554Z,3.65
2019-01-29T05:40:09.380Z,4.06
2019-01-29T05:42:38.754Z,3.78
2019-01-29T05:45:10.947Z,3.53
2019-01-29T05:47:41.562Z,3.48
2019-01-29T05:50:13.309Z,3.40
2019-01-29T05:52:42.863Z,3.48
2019-01-29T05:55:12.708Z,3.52
2019-01-29T05:57:42.461Z,3.48
2019-01-29T06:00:16.024Z,3.48
2019-01-29T06:02:45.571Z,3.48
2019-01-29T06:05:15.439Z,3.42
2019-01-29T06:07:45.060Z,3.37
2019-01-29T06:10:15.113Z,3.31
2019-01-29T06:12:44.472Z,3.23
2019-01-29T06:15:16.134Z,3.17
2019-01-29T06:17:45.728Z,3.07
2019-01-29T06:20:18.911Z,3.09
2019-01-29T06:22:49.716Z,3.03
2019-01-29T06:25:19.137Z,3.01
2019-01-29T06:27:48.777Z,3.01
2019-01-29T06:30:20.103Z,3.03
2019-01-29T06:32:49.694Z,2.97
2019-01-29T06:35:19.932Z,2.88
2019-01-29T06:37:49.339Z,2.86
2019-01-29T06:40:21.177Z,2.87
2019-01-29T06:42:51.269Z,2.83
2019-01-29T06:45:21.631Z,2.88
2019-01-29T06:47:51.150Z,2.93
2019-01-29T06:50:22.804Z,2.96
2019-01-29T06:52:52.255Z,3.08
2019-01-29T06:55:22.355Z,3.07
2019-01-29T06:57:55.679Z,3.08
2019-01-29T07:00:25.559Z,2.98
2019-01-29T07:02:55.188Z,3.03
2019-01-29T07:05:25.341Z,3.10
2019-01-29T07:07:55.003Z,3.10
2019-01-29T07:10:25.377Z,3.17
2019-01-29T07:12:55.304Z,3.31
2019-01-29T07:15:43.461Z,3.30
2019-01-29T07:18:22.594Z,3.36
2019-01-29T07:20:53.029Z,3.40
2019-01-29T07:23:22.940Z,3.48
2019-01-29T07:25:52.741Z,3.44
2019-01-29T07:28:22.186Z,3.34
2019-01-29T07:30:51.631Z,3.38
2019-01-29T07:33:21.254Z,3.30
2019-01-29T07:35:50.860Z,3.39
2019-01-29T07:38:20.366Z,3.43
2019-01-29T07:40:49.938Z,3.39
2019-01-29T07:43:19.336Z,3.41
2019-01-29T07:45:48.723Z,3.49
2019-01-29T07:48:18.410Z,3.52
2019-01-29T07:50:47.849Z,3.56
2019-01-29T07:53:17.285Z,3.39
2019-01-29T07:55:47.921Z,3.63
2019-01-29T07:58:17.381Z,3.71
2019-01-29T08:00:46.835Z,3.73
2019-01-29T08:03:16.284Z,3.81
2019-01-29T08:05:45.846Z,3.80
2019-01-29T08:08:15.347Z,3.88
2019-01-29T08:10:44.926Z,3.86
2019-01-29T08:13:14.550Z,3.80
2019-01-29T08:15:44.054Z,3.88
2019-01-29T08:18:15.002Z,4.06
2019-01-29T08:20:45.628Z,4.10
2019-01-29T08:23:15.256Z,4.03
2019-01-29T08:25:47.986Z,3.98
2019-01-29T08:28:16.180Z,3.99
2019-01-29T08:30:45.596Z,3.97
2019-01-29T08:33:15.225Z,4.09
2019-01-29T08:35:44.599Z,4.06
2019-01-29T08:38:14.024Z,4.26
2019-01-29T08:40:43.588Z,4.27
2019-01-29T08:43:12.985Z,4.19
2019-01-29T08:45:42.397Z,4.11
2019-01-29T08:48:11.963Z,4.02
2019-01-29T08:50:41.477Z,3.98
2019-01-29T08:53:10.871Z,3.94
2019-01-29T08:55:40.380Z,4.00
2019-01-29T08:58:11.487Z,4.25
2019-01-29T09:00:41.114Z,4.31
2019-01-29T09:03:10.548Z,4.41
2019-01-29T09:05:40.962Z,4.51
2019-01-29T09:08:10.645Z,4.42
2019-01-29T09:10:40.251Z,4.32
2019-01-29T09:13:09.648Z,4.45
2019-01-29T09:15:40.162Z,4.44
2019-01-29T09:18:09.659Z,4.52
2019-01-29T09:20:40.317Z,4.29
2019-01-29T09:23:09.779Z,4.29
2019-01-29T09:25:41.171Z,4.47
2019-01-29T09:28:10.760Z,4.40
2019-01-29T09:30:43.936Z,4.55
2019-01-29T09:33:13.759Z,4.54
2019-01-29T09:35:43.133Z,4.57
2019-01-29T09:38:14.506Z,4.50
2019-01-29T09:40:43.954Z,4.51
2019-01-29T09:43:14.824Z,4.47
2019-01-29T09:45:44.328Z,4.47
2019-01-29T09:48:13.781Z,4.55
2019-01-29T09:50:43.211Z,4.47
2019-01-29T09:53:14.498Z,4.59
2019-01-29T09:55:45.268Z,4.76
2019-01-29T09:58:14.709Z,4.73
2019-01-29T10:00:45.907Z,4.90
2019-01-29T10:03:15.541Z,4.86
2019-01-29T10:05:46.004Z,4.96
2019-01-29T10:08:16.721Z,4.93
2019-01-29T10:10:47.432Z,4.74
2019-01-29T10:13:18.660Z,4.58
2019-01-29T10:15:48.082Z,4.67
2019-01-29T10:18:17.556Z,4.66
2019-01-29T10:20:48.442Z,4.69
2019-01-29T10:23:17.856Z,4.88
2019-01-29T10:25:47.559Z,4.87
2019-01-29T10:28:18.166Z,4.83
2019-01-29T10:30:49.456Z,4.67
2019-01-29T10:33:19.478Z,4.75
2019-01-29T10:35:49.171Z,4.86
2019-01-29T10:38:18.567Z,5.05
2019-01-29T10:40:48.507Z,5.33
2019-01-29T10:43:17.915Z,5.32
2019-01-29T10:45:48.944Z,5.10
2019-01-29T10:48:18.610Z,5.03
2019-01-29T10:50:48.117Z,5.12
2019-01-29T10:53:17.624Z,4.98
2019-01-29T10:55:49.735Z,5.08
2019-01-29T10:58:20.216Z,4.85
2019-01-29T11:00:51.066Z,4.71
2019-01-29T11:03:23.671Z,4.80
2019-01-29T11:05:53.094Z,4.99
2019-01-29T11:08:22.473Z,5.23
2019-01-29T11:10:52.024Z,5.27
2019-01-29T11:13:21.491Z,5.33
2019-01-29T11:15:52.732Z,5.39
2019-01-29T11:18:22.499Z,5.46
2019-01-29T11:20:51.887Z,5.66
2019-01-29T11:23:21.393Z,5.64
2019-01-29T11:25:55.985Z,5.52
2019-01-29T11:28:22.088Z,5.52
2019-01-29T11:30:51.576Z,5.57
2019-01-29T11:33:22.531Z,5.79
2019-01-29T11:35:51.956Z,5.85
2019-01-29T11:38:23.162Z,5.99
2019-01-29T11:40:52.847Z,6.24
2019-01-29T11:43:22.306Z,6.39
2019-01-29T11:45:53.816Z,6.60
2019-01-29T11:48:23.877Z,6.47
2019-01-29T11:50:53.372Z,6.29
2019-01-29T11:53:22.783Z,6.33
2019-01-29T11:55:52.323Z,6.23
2019-01-29T11:58:21.731Z,6.37
2019-01-29T12:01:05.935Z,6.33
2019-01-29T12:03:37.897Z,6.05
2019-01-29T12:06:07.648Z,5.97
2019-01-29T12:08:38.441Z,6.04
2019-01-29T12:11:08.114Z,6.10
2019-01-29T12:13:37.494Z,6.11
2019-01-29T12:16:07.084Z,5.77
2019-01-29T12:18:36.513Z,5.77
2019-01-29T12:21:07.379Z,5.60
2019-01-29T12:23:36.783Z,5.84
2019-01-29T12:26:12.892Z,5.92
2019-01-29T12:28:37.576Z,5.93
2019-01-29T12:31:07.055Z,5.76
2019-01-29T12:33:36.470Z,5.71
2019-01-29T12:36:05.887Z,5.83
2019-01-29T12:38:37.538Z,5.77
2019-01-29T12:41:08.615Z,5.69
2019-01-29T12:43:39.238Z,5.65
2019-01-29T12:46:09.005Z,5.58
2019-01-29T12:48:38.401Z,5.62
2019-01-29T12:51:14.237Z,5.70
2019-01-29T12:53:47.857Z,5.70
2019-01-29T12:56:21.588Z,5.60
2019-01-29T12:58:49.905Z,5.75
2019-01-29T13:01:19.831Z,5.41
2019-01-29T13:03:49.460Z,5.44
2019-01-29T13:06:18.959Z,5.63
2019-01-29T13:08:48.524Z,5.54
2019-01-29T13:11:17.974Z,5.67
2019-01-29T13:13:47.395Z,5.58
2019-01-29T13:16:18.955Z,5.49
2019-01-29T13:18:48.374Z,5.54
2019-01-29T13:21:18.779Z,5.64
2019-01-29T13:23:48.472Z,5.65
2019-01-29T13:26:17.897Z,5.57
2019-01-29T13:28:50.918Z,5.41
2019-01-29T13:31:20.442Z,5.39
2019-01-29T13:33:49.859Z,5.34
2019-01-29T13:36:19.270Z,5.34
2019-01-29T13:38:50.676Z,5.40
2019-01-29T13:41:20.533Z,5.40
2019-01-29T13:43:51.473Z,5.46
2019-01-29T13:46:21.291Z,5.51
2019-01-29T13:48:50.847Z,5.54
2019-01-29T13:51:20.251Z,5.35
2019-01-29T13:53:49.856Z,5.33
2019-01-29T13:56:19.348Z,5.53
2019-01-29T13:58:49.789Z,5.52
2019-01-29T14:01:19.405Z,5.45
2019-01-29T14:03:48.898Z,5.54
2019-01-29T14:06:20.794Z,5.39
2019-01-29T14:08:53.609Z,5.36
2019-01-29T14:11:22.870Z,5.42
2019-01-29T14:13:53.407Z,5.53
2019-01-29T14:16:23.215Z,5.59
2019-01-29T14:18:52.764Z,5.64
2019-01-29T14:21:23.382Z,5.39
2019-01-29T14:23:55.681Z,5.37
2019-01-29T14:26:25.742Z,5.50
2019-01-29T14:28:56.886Z,5.61
2019-01-29T14:31:26.606Z,5.74
2019-01-29T14:33:57.849Z,5.71
2019-01-29T14:36:28.448Z,5.73
2019-01-29T14:39:31.489Z,5.73
2019-01-29T14:42:00.882Z,5.51
2019-01-29T14:44:40.363Z,5.37
2019-01-29T14:47:10.012Z,5.45
2019-01-29T14:49:39.431Z,5.39
2019-01-29T14:52:08.966Z,5.28
2019-01-29T14:54:38.527Z,5.32
2019-01-29T14:57:07.948Z,5.16
2019-01-29T14:59:37.354Z,5.10
2019-01-29T15:02:06.956Z,5.14
2019-01-29T15:04:36.345Z,5.22
2019-01-29T15:07:06.967Z,5.24
2019-01-29T15:09:36.648Z,5.21
2019-01-29T15:12:06.054Z,5.28
2019-01-29T15:14:35.540Z,5.38
2019-01-29T15:17:24.203Z,5.26
2019-01-29T15:19:53.672Z,4.97
2019-01-29T15:22:24.167Z,5.08
2019-01-29T15:24:53.649Z,5.23
2019-01-29T15:27:23.680Z,5.27
2019-01-29T15:29:53.223Z,5.28
2019-01-29T15:32:22.904Z,5.39
2019-01-29T15:34:52.481Z,5.46
2019-01-29T15:37:23.116Z,5.43
2019-01-29T15:39:52.669Z,5.53
2019-01-29T15:42:22.073Z,5.51
2019-01-29T15:44:52.689Z,5.50
2019-01-29T15:47:23.624Z,5.35
2019-01-29T15:49:53.025Z,5.19
2019-01-29T15:52:30.049Z,5.03
2019-01-29T15:55:02.158Z,4.93
2019-01-29T15:57:32.855Z,4.95
2019-01-29T16:00:02.300Z,4.86
2019-01-29T16:02:37.340Z,4.88
2019-01-29T16:05:10.233Z,4.91
2019-01-29T16:07:39.718Z,4.99
2019-01-29T16:10:12.760Z,4.95
2019-01-29T16:12:42.275Z,4.94
2019-01-29T16:15:13.867Z,4.88
2019-01-29T16:17:43.841Z,4.92
2019-01-29T16:20:16.076Z,4.92
2019-01-29T16:22:45.488Z,4.85
2019-01-29T16:25:16.125Z,4.70
2019-01-29T16:27:49.122Z,4.73
2019-01-29T16:30:21.248Z,4.60
2019-01-29T16:32:51.007Z,4.74
2019-01-29T16:35:26.004Z,4.83
2019-01-29T16:37:56.178Z,4.83
2019-01-29T16:40:28.065Z,4.88
2019-01-29T16:42:57.631Z,4.78
2019-01-29T16:45:29.890Z,4.81
2019-01-29T16:48:00.328Z,4.74
2019-01-29T16:50:30.045Z,4.70
2019-01-29T16:53:00.146Z,4.68
2019-01-29T16:55:31.770Z,4.67
2019-01-29T16:58:01.380Z,4.60
2019-01-29T17:00:32.075Z,4.52
2019-01-29T17:03:01.818Z,4.46
2019-01-29T17:05:34.927Z,4.24
2019-01-29T17:08:04.709Z,4.24
2019-01-29T17:10:34.207Z,4.27
2019-01-29T17:13:03.593Z,4.20
2019-01-29T17:15:33.348Z,4.14
2019-01-29T17:18:03.342Z,4.09
2019-01-29T17:20:36.053Z,4.11
2019-01-29T17:23:06.823Z,4.12
2019-01-29T17:25:36.699Z,4.07
2019-01-29T17:28:06.308Z,4.05
2019-01-29T17:30:40.767Z,4.01
2019-01-29T17:33:11.497Z,4.06
2019-01-29T17:35:41.729Z,4.05
2019-01-29T17:38:11.613Z,4.02
2019-01-29T17:40:43.675Z,4.01
2019-01-29T17:43:13.243Z,3.97
2019-01-29T17:45:44.692Z,3.91
2019-01-29T17:48:16.079Z,3.86
2019-01-29T17:50:46.580Z,3.77
2019-01-29T17:53:17.107Z,3.82
2019-01-29T17:55:47.727Z,3.86
2019-01-29T17:58:17.137Z,3.91
2019-01-29T18:00:53.666Z,3.65
2019-01-29T18:03:23.368Z,3.65
2019-01-29T18:05:52.983Z,3.62
2019-01-29T18:08:22.496Z,3.61
2019-01-29T18:10:52.141Z,3.67
2019-01-29T18:13:21.691Z,3.67
2019-01-29T18:15:51.227Z,3.69
2019-01-29T18:18:20.773Z,3.68
2019-01-29T18:20:50.236Z,3.60
2019-01-29T18:23:24.652Z,3.53
2019-01-29T18:25:54.484Z,3.58
2019-01-29T18:28:24.955Z,3.57
2019-01-29T18:30:54.395Z,3.55
2019-01-29T18:33:23.861Z,3.57
2019-01-29T18:35:53.303Z,3.56
2019-01-29T18:38:22.748Z,3.58
2019-01-29T18:40:54.774Z,3.57
2019-01-29T18:43:24.380Z,3.58
2019-01-29T18:45:53.943Z,3.52
2019-01-29T18:48:23.649Z,3.51
2019-01-29T18:50:53.049Z,3.99
2019-01-29T18:53:24.707Z,3.84
2019-01-29T18:55:54.242Z,3.71
2019-01-29T18:58:24.645Z,3.63
2019-01-29T19:00:55.930Z,3.53
2019-01-29T19:03:28.382Z,3.48
2019-01-29T19:05:57.912Z,3.45
2019-01-29T19:08:27.317Z,3.37
2019-01-29T19:10:58.036Z,3.31
2019-01-29T19:13:28.474Z,3.27
2019-01-29T19:15:58.975Z,3.25
2019-01-29T19:18:28.725Z,3.26
2019-01-29T19:20:58.284Z,3.18
2019-01-29T19:23:27.776Z,3.14
2019-01-29T19:25:58.554Z,3.07
2019-01-29T19:28:28.191Z,3.03
2019-01-29T19:31:00.170Z,3.00
2019-01-29T19:33:29.959Z,3.01
2019-01-29T19:35:59.611Z,2.97
2019-01-29T19:38:30.419Z,3.03
2019-01-29T19:41:00.318Z,2.98
2019-01-29T19:43:29.762Z,2.98
2019-01-29T19:45:59.327Z,2.98
2019-01-29T19:48:29.844Z,2.98
2019-01-29T19:51:02.576Z,2.90
2019-01-29T19:53:37.874Z,2.83
2019-01-29T19:56:07.384Z,2.71
2019-01-29T19:58:36.814Z,2.72
2019-01-29T20:01:07.732Z,2.75
2019-01-29T20:03:38.248Z,2.68
2019-01-29T20:06:07.713Z,2.65
2019-01-29T20:08:37.431Z,2.63
2019-01-29T20:11:08.449Z,2.62
2019-01-29T20:13:39.638Z,2.60
2019-01-29T20:16:09.422Z,2.57
2019-01-29T20:18:41.124Z,2.59
2019-01-29T20:21:11.150Z,2.67
2019-01-29T20:23:41.411Z,2.68
2019-01-29T20:26:11.974Z,2.63
2019-01-29T20:28:42.592Z,2.55
2019-01-29T20:31:15.015Z,2.54
2019-01-29T20:33:44.585Z,2.51
2019-01-29T20:36:15.474Z,2.53
2019-01-29T20:38:44.949Z,2.56
2019-01-29T20:41:15.381Z,2.53
2019-01-29T20:43:44.902Z,2.53
2019-01-29T20:46:14.874Z,2.51
2019-01-29T20:48:44.360Z,2.49
2019-01-29T20:51:13.784Z,2.45
2019-01-29T20:53:43.481Z,2.48
2019-01-29T20:56:12.961Z,2.45
2019-01-29T20:58:52.325Z,2.44
2019-01-29T21:01:14.106Z,2.43
2019-01-29T21:03:43.662Z,2.43
2019-01-29T21:06:13.238Z,2.44
2019-01-29T21:08:45.893Z,2.50
2019-01-29T21:11:15.390Z,2.44
2019-01-29T21:13:44.803Z,2.45
2019-01-29T21:16:14.376Z,2.45
2019-01-29T21:18:45.594Z,2.49
2019-01-29T21:21:16.061Z,2.44
2019-01-29T21:23:49.058Z,2.41
2019-01-29T21:26:18.722Z,2.47
2019-01-29T21:28:48.441Z,2.43
2019-01-29T21:31:19.543Z,2.39
2019-01-29T21:33:49.064Z,2.42
2019-01-29T21:36:18.411Z,2.41
2019-01-29T21:38:48.176Z,2.45
2019-01-29T21:41:18.795Z,2.42
2019-01-29T21:43:49.231Z,2.41
2019-01-29T21:46:19.311Z,2.39
2019-01-29T21:48:48.961Z,2.43
2019-01-29T21:51:18.391Z,2.38
2019-01-29T21:53:49.106Z,2.39
2019-01-29T21:56:18.527Z,2.33
2019-01-29T21:58:48.196Z,2.30
2019-01-29T22:01:17.783Z,2.42
2019-01-29T22:03:47.618Z,2.39
2019-01-29T22:06:18.445Z,2.34
2019-01-29T22:08:48.531Z,2.37
2019-01-29T22:11:18.332Z,2.38
2019-01-29T22:13:48.934Z,2.32
2019-01-29T22:16:20.850Z,2.33
2019-01-29T22:18:51.894Z,2.27
2019-01-29T22:21:22.840Z,2.26
2019-01-29T22:23:53.598Z,2.28
2019-01-29T22:26:23.168Z,2.26
2019-01-29T22:28:56.111Z,2.29
2019-01-29T22:31:25.826Z,2.24
2019-01-29T22:33:55.252Z,2.23
2019-01-29T22:36:25.832Z,2.23
2019-01-29T22:38:55.252Z,2.15
2019-01-29T22:41:24.704Z,2.16
2019-01-29T22:43:55.191Z,2.16
2019-01-29T22:46:24.859Z,2.22
2019-01-29T22:48:54.262Z,2.17
2019-01-29T22:51:24.812Z,2.20
2019-01-29T22:53:55.466Z,2.20
2019-01-29T22:56:24.927Z,2.19
2019-01-29T23:01:40.031Z,2.17
2019-01-29T23:04:21.574Z,2.11
2019-01-29T23:07:23.029Z,2.18
2019-01-29T23:09:52.459Z,2.17
2019-01-29T23:12:21.885Z,2.16
2019-01-29T23:14:52.978Z,2.11
2019-01-29T23:17:22.371Z,2.08
2019-01-29T23:19:52.867Z,2.06
2019-01-29T23:22:22.563Z,2.14
2019-01-29T23:24:52.114Z,2.11
2019-01-29T23:27:21.606Z,2.10
2019-01-29T23:29:51.385Z,2.07
2019-01-29T23:32:20.826Z,2.04
2019-01-29T23:34:52.116Z,2.03
2019-01-29T23:37:22.062Z,2.00
2019-01-29T23:39:51.547Z,2.00
2019-01-29T23:42:22.194Z,2.01
2019-01-29T23:44:52.658Z,2.01
2019-01-29T23:47:22.096Z,2.07
2019-01-29T23:49:51.648Z,2.05
2019-01-29T23:52:22.682Z,2.07
2019-01-29T23:54:51.993Z,2.06
2019-01-29T23:57:21.347Z,2.07
2019-01-29T23:59:53.705Z,2.11
